createdAt,value
2019-01-21T07:04:42.701Z,47.20
2019-01-21T07:07:28.418Z,46.20
2019-01-21T07:10:21.491Z,45.20
2019-01-21T07:13:11.726Z,45.70
2019-01-21T07:15:58.878Z,45.10
2019-01-21T07:18:36.455Z,44.70
2019-01-21T07:21:22.459Z,44.70
2019-01-21T07:24:05.564Z,44.50
2019-01-21T07:29:32.483Z,43.60
2019-01-21T07:32:09.734Z,44.00
2019-01-21T07:35:11.970Z,44.20
2019-01-21T07:38:02.267Z,44.60
2019-01-21T07:41:04.911Z,45.80
2019-01-21T07:43:54.742Z,45.40
2019-01-21T07:46:47.887Z,45.10
2019-01-21T07:49:38.365Z,44.60
2019-01-21T07:52:24.428Z,44.20
2019-01-21T07:55:11.872Z,44.90
2019-01-21T07:57:56.019Z,44.50
2019-01-21T08:00:45.759Z,43.10
2019-01-21T08:03:21.223Z,45.00
2019-01-21T08:05:52.342Z,44.00
2019-01-21T08:08:45.423Z,44.30
2019-01-21T08:11:41.543Z,43.50
2019-01-21T08:14:28.734Z,43.40
2019-01-21T08:17:04.910Z,43.40
2019-01-21T08:19:58.192Z,44.30
2019-01-21T08:22:44.171Z,44.00
2019-01-21T08:25:30.259Z,44.60
2019-01-21T08:28:26.831Z,44.10
2019-01-21T08:31:16.786Z,43.50
2019-01-21T08:33:59.310Z,43.50
2019-01-21T08:36:35.159Z,43.80
2019-01-21T08:39:22.230Z,43.30
2019-01-21T08:42:06.568Z,43.60
2019-01-21T08:44:52.412Z,43.60
2019-01-21T08:47:23.663Z,43.50
2019-01-21T08:50:09.567Z,43.80
2019-01-21T08:53:00.077Z,43.00
2019-01-21T08:55:32.272Z,43.00
2019-01-21T08:58:37.856Z,43.00
2019-01-21T09:01:17.572Z,43.20
2019-01-21T09:03:59.636Z,43.90
2019-01-21T09:06:37.467Z,43.10
2019-01-21T09:09:11.171Z,42.90
2019-01-21T09:11:46.033Z,43.20
2019-01-21T09:14:32.191Z,44.20
2019-01-21T09:17:10.418Z,43.80
2019-01-21T09:20:10.613Z,43.20
2019-01-21T09:22:42.828Z,43.20
2019-01-21T09:25:21.307Z,42.70
2019-01-21T09:28:11.019Z,43.40
2019-01-21T09:30:50.935Z,43.30
2019-01-21T09:33:40.843Z,43.50
2019-01-21T09:36:46.554Z,43.60
2019-01-21T09:39:30.515Z,44.10
2019-01-21T09:42:01.782Z,44.30
2019-01-21T09:44:38.943Z,44.50
2019-01-21T09:47:06.297Z,44.90
2019-01-21T09:49:33.611Z,44.40
2019-01-21T09:52:08.430Z,44.60
2019-01-21T09:54:39.930Z,45.20
2019-01-21T09:57:14.688Z,45.60
2019-01-21T09:59:42.879Z,45.70
2019-01-21T10:02:10.762Z,45.90
2019-01-21T10:04:40.183Z,45.90
2019-01-21T10:07:11.583Z,46.00
2019-01-21T10:09:46.488Z,46.00
2019-01-21T10:12:32.931Z,46.10
2019-01-21T10:15:30.080Z,46.00
2019-01-21T10:18:07.858Z,46.10
2019-01-21T10:20:55.309Z,46.20
2019-01-21T10:23:38.144Z,46.20
2019-01-21T10:26:28.123Z,46.10
2019-01-21T10:29:03.403Z,46.00
2019-01-21T10:31:50.527Z,46.00
2019-01-21T10:34:30.375Z,46.10
2019-01-21T10:37:10.011Z,46.10
2019-01-21T10:39:57.139Z,45.90
2019-01-21T10:42:47.180Z,45.50
2019-01-21T10:45:32.952Z,44.60
2019-01-21T10:48:20.108Z,44.40
2019-01-21T10:50:53.358Z,45.00
2019-01-21T10:53:55.612Z,45.10
2019-01-21T10:56:51.594Z,44.40
2019-01-21T10:59:44.624Z,44.30
2019-01-21T11:02:30.647Z,44.80
2019-01-21T11:05:05.383Z,44.00
2019-01-21T11:07:48.534Z,44.10
2019-01-21T11:10:35.659Z,44.20
2019-01-21T11:13:10.051Z,44.20
2019-01-21T11:15:57.521Z,43.90
2019-01-21T11:18:44.745Z,44.00
2019-01-21T11:21:18.898Z,44.20
2019-01-21T11:24:15.631Z,44.20
2019-01-21T11:26:51.395Z,44.30
2019-01-21T11:29:23.295Z,44.40
2019-01-21T11:32:22.536Z,44.40
2019-01-21T11:35:12.551Z,44.40
2019-01-21T11:38:11.836Z,44.40
2019-01-21T11:41:08.081Z,44.40
2019-01-21T11:43:55.228Z,44.40
2019-01-21T11:47:00.704Z,44.40
2019-01-21T11:49:50.876Z,44.60
2019-01-21T11:52:23.818Z,44.50
2019-01-21T11:55:01.960Z,44.60
2019-01-21T11:57:43.506Z,44.70
2019-01-21T12:00:21.626Z,45.00
2019-01-21T12:02:53.180Z,45.70
2019-01-21T12:05:30.459Z,45.50
2019-01-21T12:08:16.199Z,46.40
2019-01-21T12:10:57.834Z,45.50
2019-01-21T12:13:38.510Z,45.90
2019-01-21T12:16:21.664Z,46.40
2019-01-21T12:18:58.073Z,46.10
2019-01-21T12:21:36.713Z,46.40
2019-01-21T12:24:15.782Z,46.10
2019-01-21T12:27:01.861Z,46.00
2019-01-21T12:29:52.253Z,46.00
2019-01-21T12:32:36.420Z,45.70
2019-01-21T12:35:32.395Z,45.50
2019-01-21T12:38:11.740Z,45.30
2019-01-21T12:40:56.987Z,45.40
2019-01-21T12:43:44.117Z,45.20
2019-01-21T12:46:31.321Z,45.10
2019-01-21T12:49:20.813Z,45.60
2019-01-21T12:51:57.908Z,45.30
2019-01-21T12:54:45.075Z,45.10
2019-01-21T12:57:44.570Z,45.10
2019-01-21T13:00:31.395Z,45.10
2019-01-21T13:03:18.832Z,44.80
2019-01-21T13:05:59.235Z,44.80
2019-01-21T13:08:34.871Z,44.70
2019-01-21T13:11:20.611Z,44.40
2019-01-21T13:14:07.730Z,44.90
2019-01-21T13:16:41.710Z,45.00
2019-01-21T13:19:27.607Z,45.10
2019-01-21T13:22:17.841Z,45.10
2019-01-21T13:25:01.099Z,45.20
2019-01-21T13:27:36.087Z,45.20
2019-01-21T13:30:38.760Z,45.10
2019-01-21T13:33:20.503Z,45.00
2019-01-21T13:36:06.579Z,45.10
2019-01-21T13:39:12.104Z,45.00
2019-01-21T13:41:42.463Z,45.00
2019-01-21T13:44:28.562Z,44.90
2019-01-21T13:47:15.730Z,44.90
2019-01-21T13:50:12.060Z,44.80
2019-01-21T13:53:05.366Z,44.90
2019-01-21T13:55:37.025Z,44.80
2019-01-21T13:58:25.039Z,44.70
2019-01-21T14:01:10.931Z,44.90
2019-01-21T14:03:46.335Z,44.70
2019-01-21T14:06:28.784Z,44.60
2019-01-21T14:09:14.975Z,44.60
2019-01-21T14:12:02.366Z,44.70
2019-01-21T14:14:39.416Z,45.30
2019-01-21T14:17:41.658Z,45.90
2019-01-21T14:20:34.812Z,45.80
2019-01-21T14:23:25.280Z,45.20
2019-01-21T14:26:05.794Z,45.70
2019-01-21T14:28:49.648Z,45.80
2019-01-21T14:31:35.368Z,46.70
2019-01-21T14:34:09.852Z,46.40
2019-01-21T14:36:56.976Z,47.10
2019-01-21T14:39:45.097Z,47.10
2019-01-21T14:42:35.008Z,47.50
2019-01-21T14:45:07.768Z,46.70
2019-01-21T14:48:13.087Z,46.70
2019-01-21T14:51:02.782Z,46.60
2019-01-21T14:53:48.166Z,46.60
2019-01-21T14:56:22.139Z,46.50
2019-01-21T14:59:12.080Z,46.20
2019-01-21T15:02:02.374Z,46.30
2019-01-21T15:04:50.346Z,46.40
2019-01-21T15:07:21.672Z,46.50
2019-01-21T15:10:24.059Z,46.10
2019-01-21T15:13:17.100Z,46.10
2019-01-21T15:16:04.368Z,45.90
2019-01-21T15:18:53.860Z,45.90
2019-01-21T15:21:44.458Z,46.00
2019-01-21T15:24:19.245Z,45.80
2019-01-21T15:26:50.862Z,45.80
2019-01-21T15:29:36.971Z,45.80
2019-01-21T15:32:11.373Z,45.80
2019-01-21T15:35:04.578Z,45.80
2019-01-21T15:37:54.874Z,45.80
2019-01-21T15:40:42.003Z,45.80
2019-01-21T15:43:26.291Z,45.80
2019-01-21T15:46:13.423Z,45.70
2019-01-21T15:48:49.242Z,45.70
2019-01-21T15:51:26.378Z,45.70
2019-01-21T15:54:13.494Z,45.50
2019-01-21T15:57:00.672Z,45.60
2019-01-21T15:59:50.848Z,46.20
2019-01-21T16:02:28.187Z,45.60
2019-01-21T16:05:02.457Z,45.40
2019-01-21T16:07:42.200Z,45.20
2019-01-21T16:10:32.127Z,45.30
2019-01-21T16:13:19.303Z,45.40
2019-01-21T16:16:05.855Z,45.10
2019-01-21T16:18:39.110Z,45.40
2019-01-21T16:21:26.223Z,45.40
2019-01-21T16:24:12.359Z,45.40
2019-01-21T16:26:42.987Z,45.40
2019-01-21T16:29:19.102Z,45.30
2019-01-21T16:31:50.143Z,45.10
2019-01-21T16:34:36.086Z,45.20
2019-01-21T16:37:23.262Z,45.30
2019-01-21T16:39:55.883Z,45.00
2019-01-21T16:42:23.191Z,45.00
2019-01-21T16:44:51.036Z,44.80
2019-01-21T16:47:18.932Z,45.00
2019-01-21T16:49:46.918Z,44.70
2019-01-21T16:52:14.838Z,44.80
2019-01-21T16:54:42.692Z,44.50
2019-01-21T16:57:10.536Z,44.50
2019-01-21T16:59:38.378Z,44.40
2019-01-21T17:02:06.214Z,44.70
2019-01-21T17:04:34.119Z,44.70
2019-01-21T17:07:02.033Z,44.50
2019-01-21T17:09:29.930Z,44.50
2019-01-21T17:11:57.771Z,44.40
2019-01-21T17:14:25.999Z,45.00
2019-01-21T17:16:53.842Z,44.50
2019-01-21T17:19:21.744Z,45.20
2019-01-21T17:21:49.591Z,44.60
2019-01-21T17:24:17.487Z,44.20
2019-01-21T17:26:45.328Z,44.40
2019-01-21T17:29:13.223Z,44.20
2019-01-21T17:31:41.071Z,44.50
2019-01-21T17:34:08.970Z,44.40
2019-01-21T17:36:36.810Z,44.30
2019-01-21T17:39:06.615Z,44.00
2019-01-21T17:41:34.783Z,44.20
2019-01-21T17:44:02.679Z,44.30
2019-01-21T17:46:30.522Z,44.20
2019-01-21T17:48:58.371Z,44.40
2019-01-21T17:51:26.214Z,44.20
2019-01-21T17:53:54.076Z,44.20
2019-01-21T17:56:21.907Z,44.20
2019-01-21T17:58:50.050Z,44.10
2019-01-21T18:01:17.967Z,44.00
2019-01-21T18:03:45.807Z,44.00
2019-01-21T18:06:13.648Z,44.00
2019-01-21T18:08:41.491Z,44.00
2019-01-21T18:11:09.610Z,44.20
2019-01-21T18:13:37.451Z,44.00
2019-01-21T18:16:05.296Z,44.00
2019-01-21T18:18:33.139Z,44.10
2019-01-21T18:21:01.259Z,43.90
2019-01-21T18:23:29.147Z,43.80
2019-01-21T18:25:56.992Z,43.90
2019-01-21T18:28:24.831Z,44.00
2019-01-21T18:30:53.027Z,44.00
2019-01-21T18:33:20.873Z,44.90
2019-01-21T18:35:48.717Z,45.20
2019-01-21T18:38:16.887Z,45.00
2019-01-21T18:40:44.736Z,44.30
2019-01-21T18:43:12.580Z,43.90
2019-01-21T18:45:40.422Z,44.10
2019-01-21T18:48:08.263Z,42.80
2019-01-21T18:50:36.190Z,43.40
2019-01-21T18:53:04.335Z,43.80
2019-01-21T18:55:32.613Z,43.70
2019-01-21T18:58:00.450Z,44.20
2019-01-21T19:00:28.293Z,44.00
2019-01-21T19:02:56.143Z,44.60
2019-01-21T19:05:23.988Z,44.50
2019-01-21T19:07:53.681Z,44.50
2019-01-21T19:10:21.858Z,44.50
2019-01-21T19:12:50.286Z,44.70
2019-01-21T19:15:19.476Z,44.50
2019-01-21T19:17:47.555Z,44.60
2019-01-21T19:20:15.868Z,44.60
2019-01-21T19:22:43.707Z,44.60
2019-01-21T19:25:11.630Z,44.50
2019-01-21T19:27:39.479Z,44.60
2019-01-21T19:30:08.736Z,44.40
2019-01-21T19:32:36.574Z,44.40
2019-01-21T19:35:05.255Z,43.60
2019-01-21T19:37:33.102Z,44.50
2019-01-21T19:40:00.960Z,44.50
2019-01-21T19:42:28.799Z,44.30
2019-01-21T19:44:56.657Z,44.80
2019-01-21T19:47:24.495Z,44.90
2019-01-21T19:49:52.334Z,44.90
2019-01-21T19:52:21.460Z,44.20
2019-01-21T19:54:49.351Z,44.10
2019-01-21T19:57:17.196Z,43.70
2019-01-21T19:59:45.122Z,43.90
2019-01-21T20:02:12.963Z,43.90
2019-01-21T20:04:40.859Z,43.80
2019-01-21T20:07:08.697Z,43.90
2019-01-21T20:09:36.610Z,44.20
2019-01-21T20:12:04.463Z,44.10
2019-01-21T20:14:32.309Z,44.00
2019-01-21T20:17:00.167Z,44.20
2019-01-21T20:19:28.360Z,43.80
2019-01-21T20:21:56.199Z,43.90
2019-01-21T20:24:24.042Z,44.10
2019-01-21T20:26:52.267Z,43.70
2019-01-21T20:29:20.107Z,43.70
2019-01-21T20:31:48.008Z,43.70
2019-01-21T20:34:16.167Z,43.80
2019-01-21T20:36:44.100Z,43.50
2019-01-21T20:39:12.251Z,43.60
2019-01-21T20:41:40.172Z,43.30
2019-01-21T20:44:08.367Z,43.40
2019-01-21T20:46:36.290Z,43.40
2019-01-21T20:49:04.128Z,43.30
2019-01-21T20:51:31.967Z,44.00
2019-01-21T20:53:59.811Z,43.00
2019-01-21T20:56:27.656Z,43.50
2019-01-21T20:58:55.512Z,43.40
2019-01-21T21:01:23.362Z,43.50
2019-01-21T21:03:51.602Z,43.70
2019-01-21T21:06:19.523Z,43.40
2019-01-21T21:08:47.377Z,44.10
2019-01-21T21:11:15.224Z,43.30
2019-01-21T21:13:43.391Z,43.00
2019-01-21T21:16:11.230Z,43.20
2019-01-21T21:18:39.079Z,43.30
2019-01-21T21:21:06.971Z,43.30
2019-01-21T21:23:34.815Z,43.20
2019-01-21T21:26:02.718Z,43.30
2019-01-21T21:28:31.239Z,43.20
2019-01-21T21:30:59.307Z,43.20
2019-01-21T21:33:27.159Z,43.40
2019-01-21T21:35:55.125Z,43.60
2019-01-21T21:38:22.972Z,43.60
2019-01-21T21:40:50.940Z,43.70
2019-01-21T21:43:19.063Z,43.60
2019-01-21T21:45:47.135Z,43.50
2019-01-21T21:48:14.989Z,43.50
2019-01-21T21:50:42.896Z,43.60
2019-01-21T21:53:10.748Z,43.50
2019-01-21T21:55:38.687Z,43.50
2019-01-21T21:58:07.222Z,43.50
2019-01-21T22:00:35.066Z,43.50
2019-01-21T22:03:02.922Z,43.50
2019-01-21T22:05:30.859Z,43.80
2019-01-21T22:07:58.783Z,43.60
2019-01-21T22:10:28.071Z,43.50
2019-01-21T22:12:56.239Z,43.50
2019-01-21T22:15:24.193Z,43.50
2019-01-21T22:17:52.116Z,43.50
2019-01-21T22:20:20.715Z,43.50
2019-01-21T22:22:48.566Z,43.50
2019-01-21T22:25:16.791Z,43.50
2019-01-21T22:27:44.976Z,43.40
2019-01-21T22:30:17.108Z,43.50
2019-01-21T22:32:44.948Z,43.40
2019-01-21T22:35:12.874Z,43.40
2019-01-21T22:37:40.714Z,43.30
2019-01-21T22:40:09.888Z,43.40
2019-01-21T22:42:37.806Z,43.50
2019-01-21T22:45:06.002Z,43.90
2019-01-21T22:47:33.847Z,44.00
2019-01-21T22:50:02.064Z,43.20
2019-01-21T22:52:30.592Z,43.20
2019-01-21T22:54:58.804Z,43.00
2019-01-21T22:57:26.746Z,43.90
2019-01-21T22:59:54.667Z,42.90
2019-01-21T23:02:23.011Z,42.10
2019-01-21T23:04:51.000Z,42.10
2019-01-21T23:07:18.947Z,42.20
2019-01-21T23:09:46.795Z,41.50
2019-01-21T23:12:14.674Z,41.80
2019-01-21T23:14:42.834Z,42.30
2019-01-21T23:17:10.723Z,42.40
2019-01-21T23:19:38.641Z,42.70
2019-01-21T23:22:06.587Z,43.00
2019-01-21T23:24:34.423Z,42.30
2019-01-21T23:27:02.284Z,42.60
2019-01-21T23:29:30.562Z,43.60
2019-01-21T23:31:58.518Z,43.80
2019-01-21T23:34:26.732Z,43.50
2019-01-21T23:36:54.651Z,43.20
2019-01-21T23:39:22.881Z,43.20
2019-01-21T23:41:50.720Z,43.00
2019-01-21T23:44:18.723Z,43.10
2019-01-21T23:46:46.563Z,43.00
2019-01-21T23:49:14.816Z,43.20
2019-01-21T23:51:42.747Z,43.40
2019-01-21T23:54:10.940Z,43.70
2019-01-21T23:56:38.868Z,43.80
2019-01-21T23:59:06.799Z,44.00
